sensor_id;sensor_type;location;lat;lon;timestamp;P1;durP1;ratioP1;P2;durP2;ratioP2
67665;SDS011;54448;51.472;-2.574;2022-09-03T00:01:24;18.33;;;8.10;;
67665;SDS011;54448;51.472;-2.574;2022-09-03T00:03:56;15.38;;;8.00;;
67665;SDS011;54448;51.472;-2.574;2022-09-03T00:06:30;18.90;;;8.37;;
67665;SDS011;54448;51.472;-2.574;2022-09-03T00:14:13;16.10;;;8.90;;
67665;SDS011;54448;51.472;-2.574;2022-09-03T00:16:54;19.73;;;8.68;;
67665;SDS011;54448;51.472;-2.574;2022-09-03T00:19:23;14.85;;;8.35;;
67665;SDS011;54448;51.472;-2.574;2022-09-03T00:21:54;13.38;;;8.85;;
67665;SDS011;54448;51.472;-2.574;2022-09-03T00:24:22;16.70;;;9.10;;
67665;SDS011;54448;51.472;-2.574;2022-09-03T00:26:52;19.23;;;9.30;;
67665;SDS011;54448;51.472;-2.574;2022-09-03T00:29:22;12.27;;;8.57;;
67665;SDS011;54448;51.472;-2.574;2022-09-03T00:31:50;14.77;;;8.85;;
67665;SDS011;54448;51.472;-2.574;2022-09-03T00:34:20;20.73;;;9.48;;
67665;SDS011;54448;51.472;-2.574;2022-09-03T00:36:50;15.00;;;9.00;;
67665;SDS011;54448;51.472;-2.574;2022-09-03T00:39:17;14.52;;;9.23;;
67665;SDS011;54448;51.472;-2.574;2022-09-03T00:57:57;15.90;;;9.00;;
67665;SDS011;54448;51.472;-2.574;2022-09-03T01:00:41;18.15;;;8.75;;
67665;SDS011;54448;51.472;-2.574;2022-09-03T01:03:11;17.48;;;10.23;;
67665;SDS011;54448;51.472;-2.574;2022-09-03T01:05:53;16.65;;;9.27;;
67665;SDS011;54448;51.472;-2.574;2022-09-03T01:17:11;16.73;;;10.40;;
67665;SDS011;54448;51.472;-2.574;2022-09-03T01:25:17;22.30;;;10.35;;
67665;SDS011;54448;51.472;-2.574;2022-09-03T01:28:14;15.13;;;9.82;;
67665;SDS011;54448;51.472;-2.574;2022-09-03T01:30:48;16.25;;;9.77;;
67665;SDS011;54448;51.472;-2.574;2022-09-03T01:46:38;29.45;;;14.93;;
67665;SDS011;54448;51.472;-2.574;2022-09-03T01:51:47;19.55;;;10.77;;
67665;SDS011;54448;51.472;-2.574;2022-09-03T02:00:05;13.50;;;9.65;;
67665;SDS011;54448;51.472;-2.574;2022-09-03T02:02:33;18.65;;;11.27;;
67665;SDS011;54448;51.472;-2.574;2022-09-03T02:05:04;19.25;;;11.07;;
67665;SDS011;54448;51.472;-2.574;2022-09-03T02:07:34;18.73;;;10.95;;
67665;SDS011;54448;51.472;-2.574;2022-09-03T02:10:06;21.40;;;11.20;;
67665;SDS011;54448;51.472;-2.574;2022-09-03T02:12:34;17.98;;;10.88;;
67665;SDS011;54448;51.472;-2.574;2022-09-03T02:15:03;14.48;;;10.65;;
67665;SDS011;54448;51.472;-2.574;2022-09-03T02:17:32;19.95;;;11.40;;
67665;SDS011;54448;51.472;-2.574;2022-09-03T02:19:57;19.13;;;10.90;;
67665;SDS011;54448;51.472;-2.574;2022-09-03T02:22:23;15.25;;;10.93;;
67665;SDS011;54448;51.472;-2.574;2022-09-03T02:24:49;16.55;;;11.55;;
67665;SDS011;54448;51.472;-2.574;2022-09-03T02:27:14;15.73;;;11.25;;
67665;SDS011;54448;51.472;-2.574;2022-09-03T02:29:40;18.67;;;11.32;;
67665;SDS011;54448;51.472;-2.574;2022-09-03T02:32:06;35.33;;;18.13;;
67665;SDS011;54448;51.472;-2.574;2022-09-03T02:34:31;40.10;;;20.00;;
67665;SDS011;54448;51.472;-2.574;2022-09-03T02:36:57;28.00;;;15.65;;
67665;SDS011;54448;51.472;-2.574;2022-09-03T02:39:22;20.80;;;12.73;;
67665;SDS011;54448;51.472;-2.574;2022-09-03T02:41:53;21.80;;;12.35;;
67665;SDS011;54448;51.472;-2.574;2022-09-03T02:44:28;17.23;;;12.43;;
67665;SDS011;54448;51.472;-2.574;2022-09-03T02:46:56;20.35;;;13.98;;
67665;SDS011;54448;51.472;-2.574;2022-09-03T02:49:30;23.55;;;13.27;;
67665;SDS011;54448;51.472;-2.574;2022-09-03T02:52:00;22.95;;;14.00;;
67665;SDS011;54448;51.472;-2.574;2022-09-03T02:54:30;24.63;;;13.93;;
67665;SDS011;54448;51.472;-2.574;2022-09-03T02:56:57;20.33;;;13.55;;
67665;SDS011;54448;51.472;-2.574;2022-09-03T02:59:23;19.20;;;14.45;;
67665;SDS011;54448;51.472;-2.574;2022-09-03T03:01:52;22.02;;;13.88;;
67665;SDS011;54448;51.472;-2.574;2022-09-03T03:04:18;22.05;;;14.48;;
67665;SDS011;54448;51.472;-2.574;2022-09-03T03:06:43;27.80;;;15.43;;
67665;SDS011;54448;51.472;-2.574;2022-09-03T03:09:08;23.45;;;15.23;;
67665;SDS011;54448;51.472;-2.574;2022-09-03T03:11:34;25.00;;;17.00;;
67665;SDS011;54448;51.472;-2.574;2022-09-03T03:14:01;28.17;;;17.75;;
67665;SDS011;54448;51.472;-2.574;2022-09-03T03:16:26;30.83;;;18.25;;
67665;SDS011;54448;51.472;-2.574;2022-09-03T03:18:52;31.73;;;19.05;;
67665;SDS011;54448;51.472;-2.574;2022-09-03T03:21:17;33.00;;;19.35;;
67665;SDS011;54448;51.472;-2.574;2022-09-03T03:23:43;32.47;;;20.67;;
67665;SDS011;54448;51.472;-2.574;2022-09-03T03:26:10;35.97;;;21.48;;
67665;SDS011;54448;51.472;-2.574;2022-09-03T03:28:38;36.35;;;21.92;;
67665;SDS011;54448;51.472;-2.574;2022-09-03T03:31:10;39.55;;;22.50;;
67665;SDS011;54448;51.472;-2.574;2022-09-03T03:33:37;41.72;;;23.70;;
67665;SDS011;54448;51.472;-2.574;2022-09-03T03:36:06;40.38;;;23.38;;
67665;SDS011;54448;51.472;-2.574;2022-09-03T03:38:34;41.63;;;23.30;;
67665;SDS011;54448;51.472;-2.574;2022-09-03T03:41:05;43.78;;;23.60;;
67665;SDS011;54448;51.472;-2.574;2022-09-03T03:43:41;42.03;;;22.85;;
67665;SDS011;54448;51.472;-2.574;2022-09-03T03:46:07;49.08;;;24.80;;
67665;SDS011;54448;51.472;-2.574;2022-09-03T03:48:32;44.72;;;23.73;;
67665;SDS011;54448;51.472;-2.574;2022-09-03T03:51:02;47.35;;;25.33;;
67665;SDS011;54448;51.472;-2.574;2022-09-03T03:53:31;47.03;;;25.33;;
67665;SDS011;54448;51.472;-2.574;2022-09-03T03:56:00;50.95;;;24.98;;
67665;SDS011;54448;51.472;-2.574;2022-09-03T03:58:27;47.65;;;24.38;;
67665;SDS011;54448;51.472;-2.574;2022-09-03T04:00:53;49.67;;;25.50;;
67665;SDS011;54448;51.472;-2.574;2022-09-03T04:03:19;56.15;;;28.25;;
67665;SDS011;54448;51.472;-2.574;2022-09-03T04:05:55;54.17;;;26.38;;
67665;SDS011;54448;51.472;-2.574;2022-09-03T04:08:21;53.88;;;27.13;;
67665;SDS011;54448;51.472;-2.574;2022-09-03T04:10:46;55.72;;;27.05;;
67665;SDS011;54448;51.472;-2.574;2022-09-03T04:13:12;60.22;;;28.05;;
67665;SDS011;54448;51.472;-2.574;2022-09-03T04:15:38;56.33;;;27.52;;
67665;SDS011;54448;51.472;-2.574;2022-09-03T04:18:03;52.50;;;26.15;;
67665;SDS011;54448;51.472;-2.574;2022-09-03T04:20:29;53.08;;;26.70;;
67665;SDS011;54448;51.472;-2.574;2022-09-03T04:22:54;54.03;;;27.67;;
67665;SDS011;54448;51.472;-2.574;2022-09-03T04:25:25;57.05;;;26.98;;
67665;SDS011;54448;51.472;-2.574;2022-09-03T04:27:50;59.88;;;27.63;;
67665;SDS011;54448;51.472;-2.574;2022-09-03T04:30:16;58.58;;;27.00;;
67665;SDS011;54448;51.472;-2.574;2022-09-03T04:32:42;52.17;;;26.92;;
67665;SDS011;54448;51.472;-2.574;2022-09-03T04:35:20;52.22;;;26.88;;
67665;SDS011;54448;51.472;-2.574;2022-09-03T04:37:49;50.75;;;26.02;;
67665;SDS011;54448;51.472;-2.574;2022-09-03T04:40:15;52.25;;;27.52;;
67665;SDS011;54448;51.472;-2.574;2022-09-03T04:42:42;54.75;;;27.58;;
67665;SDS011;54448;51.472;-2.574;2022-09-03T04:45:08;51.25;;;25.35;;
67665;SDS011;54448;51.472;-2.574;2022-09-03T04:47:34;52.45;;;26.33;;
67665;SDS011;54448;51.472;-2.574;2022-09-03T04:50:01;51.78;;;25.40;;
67665;SDS011;54448;51.472;-2.574;2022-09-03T04:52:27;53.92;;;28.17;;
67665;SDS011;54448;51.472;-2.574;2022-09-03T04:54:57;52.97;;;25.67;;
67665;SDS011;54448;51.472;-2.574;2022-09-03T04:57:22;57.40;;;27.10;;
67665;SDS011;54448;51.472;-2.574;2022-09-03T04:59:48;49.63;;;26.08;;
67665;SDS011;54448;51.472;-2.574;2022-09-03T05:02:13;52.88;;;27.25;;
67665;SDS011;54448;51.472;-2.574;2022-09-03T05:04:39;51.20;;;26.58;;
67665;SDS011;54448;51.472;-2.574;2022-09-03T05:07:05;55.78;;;25.27;;
67665;SDS011;54448;51.472;-2.574;2022-09-03T05:09:31;51.72;;;25.95;;
67665;SDS011;54448;51.472;-2.574;2022-09-03T05:11:56;49.05;;;26.48;;
67665;SDS011;54448;51.472;-2.574;2022-09-03T05:14:22;48.33;;;24.95;;
67665;SDS011;54448;51.472;-2.574;2022-09-03T05:16:47;48.33;;;24.98;;
67665;SDS011;54448;51.472;-2.574;2022-09-03T05:19:13;45.95;;;25.08;;
67665;SDS011;54448;51.472;-2.574;2022-09-03T05:21:38;49.72;;;26.08;;
67665;SDS011;54448;51.472;-2.574;2022-09-03T05:24:04;42.60;;;24.02;;
67665;SDS011;54448;51.472;-2.574;2022-09-03T05:26:30;44.40;;;24.15;;
67665;SDS011;54448;51.472;-2.574;2022-09-03T05:29:01;47.17;;;24.05;;
67665;SDS011;54448;51.472;-2.574;2022-09-03T05:31:31;47.28;;;25.73;;
67665;SDS011;54448;51.472;-2.574;2022-09-03T05:33:59;49.10;;;26.25;;
67665;SDS011;54448;51.472;-2.574;2022-09-03T05:36:27;49.30;;;24.88;;
67665;SDS011;54448;51.472;-2.574;2022-09-03T05:38:55;42.55;;;23.08;;
67665;SDS011;54448;51.472;-2.574;2022-09-03T05:41:21;49.60;;;23.42;;
67665;SDS011;54448;51.472;-2.574;2022-09-03T05:43:51;45.55;;;22.90;;
67665;SDS011;54448;51.472;-2.574;2022-09-03T05:46:21;45.53;;;22.73;;
67665;SDS011;54448;51.472;-2.574;2022-09-03T05:48:55;48.05;;;21.20;;
67665;SDS011;54448;51.472;-2.574;2022-09-03T05:51:22;48.75;;;21.60;;
67665;SDS011;54448;51.472;-2.574;2022-09-03T05:53:48;47.90;;;21.88;;
67665;SDS011;54448;51.472;-2.574;2022-09-03T05:56:14;44.40;;;22.30;;
67665;SDS011;54448;51.472;-2.574;2022-09-03T05:58:50;45.88;;;23.40;;
67665;SDS011;54448;51.472;-2.574;2022-09-03T06:01:36;45.20;;;21.42;;
67665;SDS011;54448;51.472;-2.574;2022-09-03T06:04:04;48.10;;;21.77;;
67665;SDS011;54448;51.472;-2.574;2022-09-03T06:06:31;42.15;;;21.33;;
67665;SDS011;54448;51.472;-2.574;2022-09-03T06:09:00;40.30;;;20.70;;
67665;SDS011;54448;51.472;-2.574;2022-09-03T06:11:30;44.85;;;20.75;;
67665;SDS011;54448;51.472;-2.574;2022-09-03T06:13:58;39.55;;;20.42;;
67665;SDS011;54448;51.472;-2.574;2022-09-03T06:16:29;39.28;;;20.40;;
67665;SDS011;54448;51.472;-2.574;2022-09-03T06:18:55;42.97;;;21.45;;
67665;SDS011;54448;51.472;-2.574;2022-09-03T06:21:21;38.28;;;20.42;;
67665;SDS011;54448;51.472;-2.574;2022-09-03T06:23:51;39.33;;;21.77;;
67665;SDS011;54448;51.472;-2.574;2022-09-03T06:28:46;34.80;;;19.00;;
67665;SDS011;54448;51.472;-2.574;2022-09-03T06:31:16;34.00;;;19.08;;
67665;SDS011;54448;51.472;-2.574;2022-09-03T06:33:43;38.42;;;20.10;;
67665;SDS011;54448;51.472;-2.574;2022-09-03T06:36:09;32.97;;;19.38;;
67665;SDS011;54448;51.472;-2.574;2022-09-03T06:38:37;37.30;;;20.10;;
67665;SDS011;54448;51.472;-2.574;2022-09-03T06:41:04;39.80;;;19.90;;
67665;SDS011;54448;51.472;-2.574;2022-09-03T06:43:34;32.08;;;19.40;;
67665;SDS011;54448;51.472;-2.574;2022-09-03T06:46:03;30.80;;;18.25;;
67665;SDS011;54448;51.472;-2.574;2022-09-03T06:48:31;33.40;;;18.20;;
67665;SDS011;54448;51.472;-2.574;2022-09-03T06:51:01;35.63;;;19.80;;
67665;SDS011;54448;51.472;-2.574;2022-09-03T06:53:38;37.15;;;19.30;;
67665;SDS011;54448;51.472;-2.574;2022-09-03T06:56:12;33.67;;;18.20;;
67665;SDS011;54448;51.472;-2.574;2022-09-03T06:58:40;30.35;;;19.10;;
67665;SDS011;54448;51.472;-2.574;2022-09-03T07:01:11;33.30;;;19.38;;
67665;SDS011;54448;51.472;-2.574;2022-09-03T07:03:43;30.70;;;19.58;;
67665;SDS011;54448;51.472;-2.574;2022-09-03T07:06:10;31.98;;;20.17;;
67665;SDS011;54448;51.472;-2.574;2022-09-03T07:08:37;36.10;;;19.88;;
67665;SDS011;54448;51.472;-2.574;2022-09-03T07:11:04;30.60;;;19.33;;
67665;SDS011;54448;51.472;-2.574;2022-09-03T07:13:40;33.22;;;20.83;;
67665;SDS011;54448;51.472;-2.574;2022-09-03T07:16:10;33.25;;;20.45;;
67665;SDS011;54448;51.472;-2.574;2022-09-03T07:18:40;36.08;;;21.05;;
67665;SDS011;54448;51.472;-2.574;2022-09-03T07:21:09;32.85;;;20.17;;
67665;SDS011;54448;51.472;-2.574;2022-09-03T07:23:37;31.35;;;18.65;;
67665;SDS011;54448;51.472;-2.574;2022-09-03T07:26:07;35.40;;;20.80;;
67665;SDS011;54448;51.472;-2.574;2022-09-03T07:28:39;35.28;;;20.30;;
67665;SDS011;54448;51.472;-2.574;2022-09-03T07:31:11;30.67;;;19.75;;
67665;SDS011;54448;51.472;-2.574;2022-09-03T07:33:38;31.50;;;19.38;;
67665;SDS011;54448;51.472;-2.574;2022-09-03T07:36:08;34.55;;;20.55;;
67665;SDS011;54448;51.472;-2.574;2022-09-03T07:38:35;31.83;;;19.98;;
67665;SDS011;54448;51.472;-2.574;2022-09-03T07:41:02;34.70;;;19.42;;
67665;SDS011;54448;51.472;-2.574;2022-09-03T07:43:39;29.23;;;19.77;;
67665;SDS011;54448;51.472;-2.574;2022-09-03T07:46:11;32.15;;;20.55;;
67665;SDS011;54448;51.472;-2.574;2022-09-03T07:48:48;28.95;;;18.90;;
67665;SDS011;54448;51.472;-2.574;2022-09-03T07:51:16;35.67;;;19.27;;
67665;SDS011;54448;51.472;-2.574;2022-09-03T07:53:43;36.72;;;19.35;;
67665;SDS011;54448;51.472;-2.574;2022-09-03T07:56:09;32.03;;;18.33;;
67665;SDS011;54448;51.472;-2.574;2022-09-03T07:58:35;33.70;;;19.50;;
67665;SDS011;54448;51.472;-2.574;2022-09-03T08:01:05;33.75;;;18.42;;
67665;SDS011;54448;51.472;-2.574;2022-09-03T08:03:34;33.27;;;19.60;;
67665;SDS011;54448;51.472;-2.574;2022-09-03T08:06:03;33.75;;;19.27;;
67665;SDS011;54448;51.472;-2.574;2022-09-03T08:08:31;31.17;;;18.52;;
67665;SDS011;54448;51.472;-2.574;2022-09-03T08:11:16;26.75;;;17.10;;
67665;SDS011;54448;51.472;-2.574;2022-09-03T08:13:44;28.35;;;17.95;;
67665;SDS011;54448;51.472;-2.574;2022-09-03T08:16:17;31.08;;;17.15;;
67665;SDS011;54448;51.472;-2.574;2022-09-03T08:18:42;26.65;;;16.48;;
67665;SDS011;54448;51.472;-2.574;2022-09-03T08:21:12;25.30;;;15.98;;
67665;SDS011;54448;51.472;-2.574;2022-09-03T08:23:40;23.58;;;14.82;;
67665;SDS011;54448;51.472;-2.574;2022-09-03T08:26:10;25.85;;;14.05;;
67665;SDS011;54448;51.472;-2.574;2022-09-03T08:28:36;24.02;;;15.10;;
67665;SDS011;54448;51.472;-2.574;2022-09-03T08:31:09;22.52;;;13.77;;
67665;SDS011;54448;51.472;-2.574;2022-09-03T08:33:40;21.63;;;13.60;;
67665;SDS011;54448;51.472;-2.574;2022-09-03T08:36:14;20.55;;;13.10;;
67665;SDS011;54448;51.472;-2.574;2022-09-03T08:38:47;21.75;;;11.73;;
67665;SDS011;54448;51.472;-2.574;2022-09-03T08:41:27;18.05;;;11.52;;
67665;SDS011;54448;51.472;-2.574;2022-09-03T08:44:35;15.98;;;10.55;;
67665;SDS011;54448;51.472;-2.574;2022-09-03T08:46:51;16.48;;;10.93;;
67665;SDS011;54448;51.472;-2.574;2022-09-03T08:49:23;17.20;;;10.50;;
67665;SDS011;54448;51.472;-2.574;2022-09-03T08:51:52;18.92;;;12.10;;
67665;SDS011;54448;51.472;-2.574;2022-09-03T08:54:19;18.27;;;10.57;;
67665;SDS011;54448;51.472;-2.574;2022-09-03T08:56:48;16.55;;;10.43;;
67665;SDS011;54448;51.472;-2.574;2022-09-03T08:59:13;16.23;;;11.15;;
67665;SDS011;54448;51.472;-2.574;2022-09-03T09:01:46;19.73;;;11.00;;
67665;SDS011;54448;51.472;-2.574;2022-09-03T09:09:27;20.27;;;11.73;;
67665;SDS011;54448;51.472;-2.574;2022-09-03T09:17:46;21.83;;;13.60;;
67665;SDS011;54448;51.472;-2.574;2022-09-03T09:20:39;24.60;;;14.77;;
67665;SDS011;54448;51.472;-2.574;2022-09-03T09:23:14;30.65;;;16.20;;
67665;SDS011;54448;51.472;-2.574;2022-09-03T09:25:50;25.52;;;16.77;;
67665;SDS011;54448;51.472;-2.574;2022-09-03T09:28:20;28.45;;;17.83;;
67665;SDS011;54448;51.472;-2.574;2022-09-03T09:30:47;31.67;;;18.55;;
67665;SDS011;54448;51.472;-2.574;2022-09-03T09:33:14;31.00;;;19.52;;
67665;SDS011;54448;51.472;-2.574;2022-09-03T09:35:41;38.47;;;21.10;;
67665;SDS011;54448;51.472;-2.574;2022-09-03T09:38:08;37.83;;;22.52;;
67665;SDS011;54448;51.472;-2.574;2022-09-03T09:40:36;40.63;;;22.98;;
67665;SDS011;54448;51.472;-2.574;2022-09-03T09:43:04;37.50;;;22.67;;
67665;SDS011;54448;51.472;-2.574;2022-09-03T09:45:30;34.08;;;21.80;;
67665;SDS011;54448;51.472;-2.574;2022-09-03T09:47:58;33.95;;;21.73;;
67665;SDS011;54448;51.472;-2.574;2022-09-03T09:50:23;31.30;;;20.83;;
67665;SDS011;54448;51.472;-2.574;2022-09-03T09:52:58;36.25;;;21.45;;
67665;SDS011;54448;51.472;-2.574;2022-09-03T09:55:32;33.33;;;21.02;;
67665;SDS011;54448;51.472;-2.574;2022-09-03T09:58:05;35.63;;;20.55;;
67665;SDS011;54448;51.472;-2.574;2022-09-03T10:00:33;34.35;;;20.67;;
67665;SDS011;54448;51.472;-2.574;2022-09-03T10:03:01;35.15;;;19.92;;
67665;SDS011;54448;51.472;-2.574;2022-09-03T10:05:31;33.42;;;18.67;;
67665;SDS011;54448;51.472;-2.574;2022-09-03T10:08:03;37.92;;;18.60;;
67665;SDS011;54448;51.472;-2.574;2022-09-03T10:10:46;30.92;;;19.58;;
67665;SDS011;54448;51.472;-2.574;2022-09-03T10:13:25;30.67;;;18.33;;
67665;SDS011;54448;51.472;-2.574;2022-09-03T10:16:01;28.02;;;17.52;;
67665;SDS011;54448;51.472;-2.574;2022-09-03T10:19:08;33.28;;;17.17;;
67665;SDS011;54448;51.472;-2.574;2022-09-03T10:21:57;27.05;;;15.73;;
67665;SDS011;54448;51.472;-2.574;2022-09-03T10:24:48;22.23;;;13.82;;
67665;SDS011;54448;51.472;-2.574;2022-09-03T10:27:22;22.27;;;14.60;;
67665;SDS011;54448;51.472;-2.574;2022-09-03T10:29:48;24.50;;;14.45;;
67665;SDS011;54448;51.472;-2.574;2022-09-03T10:38:03;21.85;;;11.73;;
67665;SDS011;54448;51.472;-2.574;2022-09-03T10:40:35;18.77;;;11.27;;
67665;SDS011;54448;51.472;-2.574;2022-09-03T10:50:55;21.38;;;12.15;;
67665;SDS011;54448;51.472;-2.574;2022-09-03T10:56:38;20.27;;;11.90;;
67665;SDS011;54448;51.472;-2.574;2022-09-03T11:01:36;19.13;;;12.60;;
67665;SDS011;54448;51.472;-2.574;2022-09-03T11:06:40;20.90;;;12.73;;
67665;SDS011;54448;51.472;-2.574;2022-09-03T11:11:48;21.17;;;11.55;;
67665;SDS011;54448;51.472;-2.574;2022-09-03T11:14:22;24.38;;;12.63;;
67665;SDS011;54448;51.472;-2.574;2022-09-03T11:16:57;18.10;;;11.13;;
67665;SDS011;54448;51.472;-2.574;2022-09-03T11:19:38;20.07;;;10.63;;
67665;SDS011;54448;51.472;-2.574;2022-09-03T11:22:14;15.25;;;10.23;;
67665;SDS011;54448;51.472;-2.574;2022-09-03T11:24:42;22.73;;;11.93;;
67665;SDS011;54448;51.472;-2.574;2022-09-03T11:29:57;19.30;;;11.05;;
67665;SDS011;54448;51.472;-2.574;2022-09-03T11:33:09;27.08;;;12.13;;
67665;SDS011;54448;51.472;-2.574;2022-09-03T11:35:26;20.23;;;10.77;;
67665;SDS011;54448;51.472;-2.574;2022-09-03T11:41:03;17.30;;;9.73;;
67665;SDS011;54448;51.472;-2.574;2022-09-03T11:43:39;21.17;;;10.43;;
67665;SDS011;54448;51.472;-2.574;2022-09-03T11:46:10;17.80;;;11.02;;
67665;SDS011;54448;51.472;-2.574;2022-09-03T11:48:42;17.55;;;11.18;;
67665;SDS011;54448;51.472;-2.574;2022-09-03T11:51:28;18.50;;;11.23;;
67665;SDS011;54448;51.472;-2.574;2022-09-03T11:54:05;17.00;;;10.50;;
67665;SDS011;54448;51.472;-2.574;2022-09-03T11:57:04;17.23;;;10.95;;
67665;SDS011;54448;51.472;-2.574;2022-09-03T11:59:37;19.58;;;12.43;;
67665;SDS011;54448;51.472;-2.574;2022-09-03T12:02:06;16.98;;;11.15;;
67665;SDS011;54448;51.472;-2.574;2022-09-03T12:07:14;14.13;;;9.40;;
67665;SDS011;54448;51.472;-2.574;2022-09-03T12:09:52;19.88;;;9.20;;
67665;SDS011;54448;51.472;-2.574;2022-09-03T12:17:50;19.73;;;7.95;;
67665;SDS011;54448;51.472;-2.574;2022-09-03T12:20:36;16.35;;;8.68;;
67665;SDS011;54448;51.472;-2.574;2022-09-03T12:23:02;12.68;;;7.60;;
67665;SDS011;54448;51.472;-2.574;2022-09-03T12:25:27;12.93;;;7.45;;
67665;SDS011;54448;51.472;-2.574;2022-09-03T12:27:53;11.27;;;7.05;;
67665;SDS011;54448;51.472;-2.574;2022-09-03T12:30:21;13.32;;;7.43;;
67665;SDS011;54448;51.472;-2.574;2022-09-03T12:32:50;14.02;;;7.90;;
67665;SDS011;54448;51.472;-2.574;2022-09-03T12:35:28;11.38;;;6.57;;
67665;SDS011;54448;51.472;-2.574;2022-09-03T12:37:54;13.77;;;6.45;;
67665;SDS011;54448;51.472;-2.574;2022-09-03T12:40:21;15.80;;;5.95;;
67665;SDS011;54448;51.472;-2.574;2022-09-03T12:42:50;12.13;;;5.47;;
67665;SDS011;54448;51.472;-2.574;2022-09-03T12:45:20;9.18;;;5.20;;
67665;SDS011;54448;51.472;-2.574;2022-09-03T12:47:47;7.90;;;4.65;;
67665;SDS011;54448;51.472;-2.574;2022-09-03T12:50:15;13.05;;;5.47;;
67665;SDS011;54448;51.472;-2.574;2022-09-03T13:00:23;10.77;;;4.20;;
67665;SDS011;54448;51.472;-2.574;2022-09-03T13:03:05;8.25;;;3.95;;
67665;SDS011;54448;51.472;-2.574;2022-09-03T13:05:35;7.57;;;4.18;;
67665;SDS011;54448;51.472;-2.574;2022-09-03T13:08:06;8.32;;;4.00;;
67665;SDS011;54448;51.472;-2.574;2022-09-03T13:10:34;11.50;;;3.85;;
67665;SDS011;54448;51.472;-2.574;2022-09-03T13:13:06;8.95;;;4.43;;
67665;SDS011;54448;51.472;-2.574;2022-09-03T13:15:54;9.20;;;4.85;;
67665;SDS011;54448;51.472;-2.574;2022-09-03T13:18:30;11.70;;;4.95;;
67665;SDS011;54448;51.472;-2.574;2022-09-03T13:31:49;10.63;;;5.00;;
67665;SDS011;54448;51.472;-2.574;2022-09-03T13:34:32;9.10;;;4.85;;
67665;SDS011;54448;51.472;-2.574;2022-09-03T13:39:45;10.20;;;5.30;;
67665;SDS011;54448;51.472;-2.574;2022-09-03T13:42:16;9.90;;;5.60;;
67665;SDS011;54448;51.472;-2.574;2022-09-03T13:48:09;16.08;;;6.20;;
67665;SDS011;54448;51.472;-2.574;2022-09-03T13:51:06;15.18;;;6.05;;
67665;SDS011;54448;51.472;-2.574;2022-09-03T13:53:43;17.27;;;7.03;;
67665;SDS011;54448;51.472;-2.574;2022-09-03T13:56:28;12.27;;;6.43;;
67665;SDS011;54448;51.472;-2.574;2022-09-03T13:59:10;14.13;;;6.53;;
67665;SDS011;54448;51.472;-2.574;2022-09-03T14:04:33;22.60;;;6.32;;
67665;SDS011;54448;51.472;-2.574;2022-09-03T14:07:07;10.82;;;5.50;;
67665;SDS011;54448;51.472;-2.574;2022-09-03T14:09:47;10.55;;;5.15;;
67665;SDS011;54448;51.472;-2.574;2022-09-03T14:12:33;11.15;;;5.28;;
67665;SDS011;54448;51.472;-2.574;2022-09-03T14:15:05;12.07;;;4.45;;
67665;SDS011;54448;51.472;-2.574;2022-09-03T14:17:36;10.52;;;4.50;;
67665;SDS011;54448;51.472;-2.574;2022-09-03T14:20:05;9.43;;;4.50;;
67665;SDS011;54448;51.472;-2.574;2022-09-03T14:25:31;14.52;;;4.72;;
67665;SDS011;54448;51.472;-2.574;2022-09-03T14:30:48;9.80;;;4.75;;
67665;SDS011;54448;51.472;-2.574;2022-09-03T14:36:25;9.27;;;4.05;;
67665;SDS011;54448;51.472;-2.574;2022-09-03T14:44:25;10.88;;;4.95;;
67665;SDS011;54448;51.472;-2.574;2022-09-03T14:46:58;10.40;;;4.38;;
67665;SDS011;54448;51.472;-2.574;2022-09-03T14:52:27;9.82;;;4.80;;
67665;SDS011;54448;51.472;-2.574;2022-09-03T14:55:24;16.08;;;5.20;;
67665;SDS011;54448;51.472;-2.574;2022-09-03T15:06:31;10.02;;;4.25;;
67665;SDS011;54448;51.472;-2.574;2022-09-03T15:12:05;10.52;;;3.72;;
67665;SDS011;54448;51.472;-2.574;2022-09-03T15:14:37;8.60;;;3.17;;
67665;SDS011;54448;51.472;-2.574;2022-09-03T15:20:40;8.82;;;3.22;;
67665;SDS011;54448;51.472;-2.574;2022-09-03T15:23:02;7.10;;;2.40;;
67665;SDS011;54448;51.472;-2.574;2022-09-03T15:26:04;9.57;;;2.80;;
67665;SDS011;54448;51.472;-2.574;2022-09-03T15:37:33;6.82;;;2.35;;
67665;SDS011;54448;51.472;-2.574;2022-09-03T15:42:46;4.78;;;2.35;;
67665;SDS011;54448;51.472;-2.574;2022-09-03T15:48:22;3.95;;;1.90;;
67665;SDS011;54448;51.472;-2.574;2022-09-03T16:07:22;4.88;;;1.90;;
67665;SDS011;54448;51.472;-2.574;2022-09-03T16:12:32;5.38;;;1.70;;
67665;SDS011;54448;51.472;-2.574;2022-09-03T16:15:11;11.15;;;2.17;;
67665;SDS011;54448;51.472;-2.574;2022-09-03T16:20:43;6.00;;;1.50;;
67665;SDS011;54448;51.472;-2.574;2022-09-03T16:23:15;8.07;;;2.28;;
67665;SDS011;54448;51.472;-2.574;2022-09-03T16:44:35;8.80;;;2.20;;
67665;SDS011;54448;51.472;-2.574;2022-09-03T16:49:45;8.00;;;2.00;;
67665;SDS011;54448;51.472;-2.574;2022-09-03T16:57:51;11.02;;;2.47;;
67665;SDS011;54448;51.472;-2.574;2022-09-03T17:00:38;11.38;;;2.00;;
67665;SDS011;54448;51.472;-2.574;2022-09-03T17:09:04;6.25;;;2.10;;
67665;SDS011;54448;51.472;-2.574;2022-09-03T17:20:14;8.43;;;2.13;;
67665;SDS011;54448;51.472;-2.574;2022-09-03T17:30:51;4.72;;;2.03;;
67665;SDS011;54448;51.472;-2.574;2022-09-03T17:36:22;8.55;;;2.38;;
67665;SDS011;54448;51.472;-2.574;2022-09-03T17:41:45;7.85;;;2.10;;
67665;SDS011;54448;51.472;-2.574;2022-09-03T17:47:30;17.67;;;2.67;;
67665;SDS011;54448;51.472;-2.574;2022-09-03T17:55:37;7.50;;;1.98;;
67665;SDS011;54448;51.472;-2.574;2022-09-03T17:58:13;13.43;;;2.40;;
67665;SDS011;54448;51.472;-2.574;2022-09-03T18:03:40;13.07;;;2.40;;
67665;SDS011;54448;51.472;-2.574;2022-09-03T18:09:42;9.77;;;2.83;;
67665;SDS011;54448;51.472;-2.574;2022-09-03T18:11:45;8.45;;;2.40;;
67665;SDS011;54448;51.472;-2.574;2022-09-03T18:16:44;8.02;;;2.85;;
67665;SDS011;54448;51.472;-2.574;2022-09-03T18:19:33;9.60;;;2.83;;
67665;SDS011;54448;51.472;-2.574;2022-09-03T18:22:21;11.00;;;3.00;;
67665;SDS011;54448;51.472;-2.574;2022-09-03T18:25:10;8.07;;;2.40;;
67665;SDS011;54448;51.472;-2.574;2022-09-03T18:27:56;14.93;;;2.80;;
67665;SDS011;54448;51.472;-2.574;2022-09-03T18:30:42;7.28;;;2.53;;
67665;SDS011;54448;51.472;-2.574;2022-09-03T18:36:11;10.18;;;2.30;;
67665;SDS011;54448;51.472;-2.574;2022-09-03T18:39:15;15.20;;;2.78;;
67665;SDS011;54448;51.472;-2.574;2022-09-03T18:45:01;12.77;;;2.45;;
67665;SDS011;54448;51.472;-2.574;2022-09-03T18:56:52;8.85;;;2.60;;
67665;SDS011;54448;51.472;-2.574;2022-09-03T18:59:41;8.98;;;2.63;;
67665;SDS011;54448;51.472;-2.574;2022-09-03T19:05:59;9.88;;;2.58;;
67665;SDS011;54448;51.472;-2.574;2022-09-03T19:14:41;9.82;;;3.03;;
67665;SDS011;54448;51.472;-2.574;2022-09-03T19:20:31;15.02;;;3.22;;
67665;SDS011;54448;51.472;-2.574;2022-09-03T19:23:17;12.52;;;3.05;;
67665;SDS011;54448;51.472;-2.574;2022-09-03T19:32:22;9.05;;;3.10;;
67665;SDS011;54448;51.472;-2.574;2022-09-03T19:38:34;12.13;;;2.92;;
67665;SDS011;54448;51.472;-2.574;2022-09-03T19:44:41;10.95;;;3.00;;
67665;SDS011;54448;51.472;-2.574;2022-09-03T19:48:26;7.43;;;2.47;;
67665;SDS011;54448;51.472;-2.574;2022-09-03T19:51:06;8.10;;;3.13;;
67665;SDS011;54448;51.472;-2.574;2022-09-03T19:53:54;8.23;;;3.65;;
67665;SDS011;54448;51.472;-2.574;2022-09-03T19:56:40;8.77;;;3.55;;
67665;SDS011;54448;51.472;-2.574;2022-09-03T19:59:24;14.77;;;3.58;;
67665;SDS011;54448;51.472;-2.574;2022-09-03T20:02:12;12.07;;;3.25;;
67665;SDS011;54448;51.472;-2.574;2022-09-03T20:07:48;15.95;;;3.70;;